Time;durP1;ratioP1;P1;durP2;ratioP2;P2;SDS_P1;SDS_P2;PMS_P1;PMS_P2;Temp;Humidity;BMP_temperature;BMP_pressure;BME280_temperature;BME280_humidity;BME280_pressure;Samples;Min_cycle;Max_cycle;Signal;HPM_P1;HPM_P2
2023/08/05 00:01:23;;;;;;;7.80;3.78;;;;;;;15.93;100.00;101545.72;5012421;28;20049;-54
2023/08/05 00:03:51;;;;;;;8.85;3.58;;;;;;;15.79;100.00;101534.31;5007942;28;20053;-53
2023/08/05 00:06:21;;;;;;;8.48;3.92;;;;;;;15.83;100.00;101532.31;5009617;28;20050;-52
2023/08/05 00:08:49;;;;;;;7.63;3.85;;;;;;;15.80;100.00;101530.75;5007026;28;20060;-64
2023/08/05 00:11:18;;;;;;;9.73;3.85;;;;;;;15.82;100.00;101534.09;5009767;28;20073;-53
2023/08/05 00:13:46;;;;;;;7.30;3.58;;;;;;;15.79;100.00;101529.00;5008895;28;20046;-54
2023/08/05 00:16:15;;;;;;;8.50;3.67;;;;;;;15.77;100.00;101530.09;5009342;28;20509;-53
2023/08/05 00:18:44;;;;;;;8.82;3.08;;;;;;;15.84;100.00;101526.03;5010719;28;20136;-53
2023/08/05 00:21:12;;;;;;;7.30;3.28;;;;;;;15.85;100.00;101522.41;5009412;28;20714;-54
2023/08/05 00:23:41;;;;;;;7.32;3.38;;;;;;;15.83;100.00;101513.75;5009770;28;20104;-54
2023/08/05 00:26:11;;;;;;;8.38;3.70;;;;;;;15.82;100.00;101517.38;5011990;28;20049;-53
2023/08/05 00:28:39;;;;;;;9.73;3.22;;;;;;;15.79;100.00;101512.25;5012116;28;20041;-64
2023/08/05 00:31:09;;;;;;;6.20;3.10;;;;;;;15.83;100.00;101514.59;5010454;28;20050;-64
2023/08/05 00:33:37;;;;;;;7.47;3.38;;;;;;;15.80;100.00;101514.84;5008447;28;20137;-64
2023/08/05 00:36:06;;;;;;;7.50;3.25;;;;;;;15.79;100.00;101513.09;5008809;28;20069;-64
2023/08/05 00:38:34;;;;;;;11.35;3.33;;;;;;;15.75;100.00;101519.59;5006825;28;20145;-64
2023/08/05 00:41:04;;;;;;;6.35;3.13;;;;;;;15.76;100.00;101513.34;5008521;28;20056;-64
2023/08/05 00:43:32;;;;;;;6.78;3.25;;;;;;;15.72;100.00;101517.19;5009288;28;20046;-64
2023/08/05 00:46:02;;;;;;;8.95;3.33;;;;;;;15.68;100.00;101513.91;5012049;28;20128;-64
2023/08/05 00:48:30;;;;;;;11.43;3.70;;;;;;;15.65;100.00;101518.59;5011976;28;20499;-64
2023/08/05 00:50:59;;;;;;;6.45;3.63;;;;;;;15.59;100.00;101511.97;5009653;28;20049;-55
2023/08/05 00:53:28;;;;;;;6.65;3.17;;;;;;;15.58;100.00;101512.09;5005484;28;20346;-55
2023/08/05 00:55:57;;;;;;;9.07;3.38;;;;;;;15.63;100.00;101505.47;5007851;28;20053;-54
2023/08/05 00:58:27;;;;;;;6.10;3.15;;;;;;;15.62;100.00;101502.94;5009682;28;20088;-64
2023/08/05 01:00:55;;;;;;;9.25;4.07;;;;;;;15.61;100.00;101509.19;5010119;28;20050;-64
2023/08/05 01:03:27;;;;;;;8.07;3.95;;;;;;;15.64;100.00;101511.63;5010462;28;20056;-63
2023/08/05 01:05:56;;;;;;;9.02;4.13;;;;;;;15.67;100.00;101512.22;5008837;28;20474;-64
2023/08/05 01:08:24;;;;;;;8.18;3.80;;;;;;;15.58;100.00;101507.63;5008695;28;20116;-64
2023/08/05 01:10:53;;;;;;;8.80;3.40;;;;;;;15.62;100.00;101509.06;5011685;28;20121;-64
2023/08/05 01:13:21;;;;;;;8.75;3.72;;;;;;;15.64;100.00;101514.28;5015938;28;20057;-64
2023/08/05 01:15:51;;;;;;;7.45;3.80;;;;;;;15.66;100.00;101499.91;5012932;28;20049;-63
2023/08/05 01:18:19;;;;;;;7.88;3.63;;;;;;;15.75;100.00;101494.88;5012442;28;20048;-63
2023/08/05 01:20:51;;;;;;;7.93;3.90;;;;;;;15.77;100.00;101495.63;5015681;28;20053;-64
2023/08/05 01:23:27;;;;;;;7.45;3.33;;;;;;;15.72;100.00;101491.50;5016137;28;20523;-63
2023/08/05 01:25:57;;;;;;;6.30;3.90;;;;;;;15.62;100.00;101484.38;5015917;28;20052;-64
2023/08/05 01:28:26;;;;;;;8.00;4.07;;;;;;;15.62;100.00;101492.34;5015681;28;20053;-64
2023/08/05 01:30:57;;;;;;;7.28;3.08;;;;;;;15.51;100.00;101479.91;5015590;28;20058;-64
2023/08/05 01:33:25;;;;;;;6.75;3.30;;;;;;;15.49;100.00;101480.00;5015804;28;20037;-64
2023/08/05 01:35:54;;;;;;;8.18;4.05;;;;;;;15.56;100.00;101469.78;5015315;28;20054;-64
2023/08/05 01:38:22;;;;;;;9.30;3.50;;;;;;;15.61;100.00;101465.00;5015671;28;20417;-64
2023/08/05 01:40:50;;;;;;;8.40;3.45;;;;;;;15.61;100.00;101470.28;5015397;28;20049;-63
2023/08/05 01:43:20;;;;;;;7.70;3.90;;;;;;;15.65;100.00;101458.47;5012268;28;20042;-63
2023/08/05 01:45:48;;;;;;;7.22;3.67;;;;;;;15.63;100.00;101463.03;5011963;28;20509;-63
2023/08/05 01:48:17;;;;;;;8.75;3.95;;;;;;;15.68;100.00;101460.06;5011760;28;20093;-63
2023/08/05 01:50:45;;;;;;;9.80;3.75;;;;;;;15.65;100.00;101453.19;5012049;28;20056;-64
2023/08/05 01:53:14;;;;;;;7.40;3.58;;;;;;;15.67;100.00;101458.38;5011623;28;20054;-64
2023/08/05 01:55:42;;;;;;;10.10;4.18;;;;;;;15.67;100.00;101461.84;5010458;28;20050;-64
2023/08/05 01:58:10;;;;;;;8.52;4.18;;;;;;;15.69;100.00;101467.88;5012223;28;20446;-64
2023/08/05 02:00:40;;;;;;;7.03;3.17;;;;;;;15.70;100.00;101471.38;5011424;28;20116;-63
2023/08/05 02:03:08;;;;;;;7.05;3.67;;;;;;;15.64;100.00;101471.88;5012839;28;20057;-64
2023/08/05 02:05:37;;;;;;;8.23;3.28;;;;;;;15.62;100.00;101471.97;5011705;28;20054;-64
2023/08/05 02:08:05;;;;;;;8.07;3.45;;;;;;;15.52;100.00;101474.47;5013897;28;20073;-64
2023/08/05 02:10:34;;;;;;;7.47;3.58;;;;;;;15.49;100.00;101476.53;5014164;28;20057;-64
2023/08/05 02:13:03;;;;;;;7.32;3.70;;;;;;;15.52;100.00;101473.63;5011690;28;20049;-64
2023/08/05 02:15:31;;;;;;;7.82;3.50;;;;;;;15.57;100.00;101471.50;5012290;28;20062;-64
2023/08/05 02:18:01;;;;;;;9.05;3.53;;;;;;;15.60;100.00;101463.28;5014871;28;20456;-63
2023/08/05 02:20:29;;;;;;;10.70;3.90;;;;;;;15.54;100.00;101471.69;5012898;28;20404;-64
2023/08/05 02:22:58;;;;;;;10.48;3.55;;;;;;;15.48;100.00;101469.53;5011036;28;20053;-64
2023/08/05 02:25:26;;;;;;;8.93;3.65;;;;;;;15.48;100.00;101472.19;5013989;28;20499;-64
2023/08/05 02:27:54;;;;;;;7.65;3.50;;;;;;;15.45;100.00;101475.06;5011366;28;20049;-64
2023/08/05 02:30:23;;;;;;;8.13;3.78;;;;;;;15.53;100.00;101465.56;5013165;28;20056;-63
2023/08/05 02:32:51;;;;;;;12.18;4.32;;;;;;;15.54;100.00;101467.25;5011860;28;20077;-64
2023/08/05 02:35:21;;;;;;;8.57;3.85;;;;;;;15.51;100.00;101464.00;5009585;28;20309;-64
2023/08/05 02:37:50;;;;;;;7.30;3.50;;;;;;;15.54;100.00;101463.75;5014224;28;20385;-64
2023/08/05 02:40:18;;;;;;;7.60;3.85;;;;;;;15.50;100.00;101455.19;5014400;28;20128;-64
2023/08/05 02:42:46;;;;;;;10.80;4.15;;;;;;;15.57;100.00;101447.63;5012843;28;20064;-64
2023/08/05 02:45:14;;;;;;;6.63;3.78;;;;;;;15.57;100.00;101452.94;5012164;28;20141;-63
2023/08/05 02:47:43;;;;;;;9.65;4.00;;;;;;;15.46;100.00;101451.09;5010748;28;20156;-64
2023/08/05 02:50:11;;;;;;;8.38;3.83;;;;;;;15.48;100.00;101445.69;5013872;28;20116;-64
2023/08/05 02:52:41;;;;;;;7.30;3.53;;;;;;;15.49;100.00;101448.22;5013094;28;20088;-64
2023/08/05 02:55:09;;;;;;;7.15;3.60;;;;;;;15.49;100.00;101447.38;5009008;28;20057;-63
2023/08/05 02:57:37;;;;;;;8.60;3.65;;;;;;;15.46;100.00;101443.16;5010126;28;20092;-64
2023/08/05 03:00:07;;;;;;;8.95;4.00;;;;;;;15.45;100.00;101445.91;5009581;28;20073;-54
2023/08/05 03:02:35;;;;;;;8.35;3.50;;;;;;;15.46;100.00;101436.97;5012661;28;20053;-55
2023/08/05 03:05:04;;;;;;;9.13;3.80;;;;;;;15.43;100.00;101442.53;5010183;28;20046;-54
2023/08/05 03:07:32;;;;;;;11.02;4.15;;;;;;;15.43;100.00;101431.94;5010162;28;20046;-55
2023/08/05 03:10:02;;;;;;;6.60;3.45;;;;;;;15.43;100.00;101430.09;5011874;28;20046;-55
2023/08/05 03:12:30;;;;;;;7.95;4.15;;;;;;;15.42;100.00;101435.53;5010318;28;20128;-53
2023/08/05 03:14:59;;;;;;;7.72;3.72;;;;;;;15.37;100.00;101438.53;5013071;28;20050;-53
2023/08/05 03:17:27;;;;;;;7.97;4.15;;;;;;;15.32;100.00;101436.22;5013631;28;20128;-55
2023/08/05 03:19:55;;;;;;;9.00;4.00;;;;;;;15.27;100.00;101438.41;5013289;28;20141;-55
2023/08/05 03:22:24;;;;;;;10.02;4.18;;;;;;;15.21;100.00;101434.41;5013656;28;20421;-55
2023/08/05 03:24:52;;;;;;;10.88;3.72;;;;;;;15.18;100.00;101424.03;5013329;28;20050;-54
2023/08/05 03:27:21;;;;;;;8.48;4.03;;;;;;;15.16;100.00;101425.09;5010318;28;20105;-54
2023/08/05 03:29:50;;;;;;;10.73;4.13;;;;;;;15.11;100.00;101421.97;5008645;28;20054;-53
2023/08/05 03:32:18;;;;;;;7.90;4.07;;;;;;;15.12;100.00;101421.00;5009864;28;20042;-55
2023/08/05 03:34:46;;;;;;;8.70;4.20;;;;;;;15.05;100.00;101420.59;5010244;28;20046;-54
2023/08/05 03:37:15;;;;;;;10.45;3.92;;;;;;;15.02;100.00;101411.13;5012846;28;20068;-54
2023/08/05 03:39:43;;;;;;;7.22;4.07;;;;;;;15.02;100.00;101407.59;5011434;28;20073;-55
2023/08/05 03:42:11;;;;;;;9.15;4.40;;;;;;;15.09;100.00;101408.00;5012854;28;20489;-54
2023/08/05 03:44:42;;;;;;;7.65;4.22;;;;;;;15.04;100.00;101403.88;5009345;28;20436;-54
2023/08/05 03:47:11;;;;;;;9.02;4.35;;;;;;;15.11;100.00;101404.25;5010906;28;20445;-54
2023/08/05 03:49:39;;;;;;;8.13;4.43;;;;;;;14.98;100.00;101392.91;5010524;28;20402;-53
2023/08/05 03:52:10;;;;;;;9.25;4.40;;;;;;;14.99;100.00;101394.59;5010248;28;20133;-55
2023/08/05 03:54:38;;;;;;;10.57;4.75;;;;;;;14.93;100.00;101381.81;5011742;28;20049;-54
2023/08/05 03:57:08;;;;;;;8.88;4.78;;;;;;;14.90;100.00;101376.75;5009957;28;20440;-54
2023/08/05 03:59:37;;;;;;;7.93;4.13;;;;;;;14.82;100.00;101378.19;5009185;28;20505;-54
2023/08/05 04:02:07;;;;;;;7.28;4.57;;;;;;;14.79;100.00;101374.91;5009378;28;20042;-54
2023/08/05 04:04:35;;;;;;;7.72;4.90;;;;;;;14.75;100.00;101376.94;5008333;28;20165;-63
2023/08/05 04:07:04;;;;;;;10.85;4.75;;;;;;;14.85;100.00;101374.47;5012076;28;20042;-64
2023/08/05 04:09:32;;;;;;;9.80;4.50;;;;;;;14.79;100.00;101382.84;5011542;28;20194;-63
2023/08/05 04:12:03;;;;;;;8.93;5.50;;;;;;;14.79;100.00;101367.81;5009440;28;20050;-53
2023/08/05 04:14:32;;;;;;;10.95;5.95;;;;;;;14.76;100.00;101370.69;5010321;28;20046;-64
2023/08/05 04:17:02;;;;;;;11.70;5.97;;;;;;;14.80;100.00;101363.34;5010065;28;20501;-63
2023/08/05 04:19:33;;;;;;;9.85;6.32;;;;;;;14.68;100.00;101362.47;5008698;28;20049;-55
2023/08/05 04:22:01;;;;;;;11.02;6.20;;;;;;;14.72;100.00;101363.09;5009818;28;20050;-54
2023/08/05 04:24:32;;;;;;;12.00;6.88;;;;;;;14.69;100.00;101358.88;5006825;28;20417;-64
2023/08/05 04:27:01;;;;;;;12.52;6.90;;;;;;;14.69;100.00;101361.50;5009561;28;20520;-53
2023/08/05 04:29:29;;;;;;;11.88;7.15;;;;;;;14.73;100.00;101356.84;5011101;28;20050;-54
2023/08/05 04:31:58;;;;;;;12.38;7.90;;;;;;;14.72;100.00;101363.91;5009236;28;20041;-63
2023/08/05 04:34:26;;;;;;;10.80;7.43;;;;;;;14.85;100.00;101363.88;5008503;28;20093;-63
2023/08/05 04:36:56;;;;;;;11.95;7.72;;;;;;;14.87;100.00;101359.28;5009685;28;20416;-64
2023/08/05 04:39:24;;;;;;;12.00;7.43;;;;;;;14.83;100.00;101360.47;5009793;28;20505;-54
2023/08/05 04:41:52;;;;;;;12.15;7.80;;;;;;;14.83;100.00;101363.97;5009032;28;20141;-52
2023/08/05 04:44:21;;;;;;;10.57;7.78;;;;;;;14.90;100.00;101358.22;5008634;28;20049;-53
2023/08/05 04:46:49;;;;;;;11.88;7.60;;;;;;;14.88;100.00;101353.88;5006831;28;20038;-54
2023/08/05 04:49:18;;;;;;;17.30;8.65;;;;;;;14.88;100.00;101342.44;5008837;28;20129;-55
2023/08/05 04:51:46;;;;;;;12.82;7.93;;;;;;;14.86;100.00;101345.22;5008443;28;20089;-54
2023/08/05 04:54:16;;;;;;;13.70;7.65;;;;;;;14.93;100.00;101339.44;5006886;28;20129;-53
2023/08/05 04:56:44;;;;;;;11.35;7.55;;;;;;;14.92;100.00;101332.47;5008160;28;20054;-64
2023/08/05 04:59:12;;;;;;;13.45;8.43;;;;;;;14.98;100.00;101332.00;5008857;28;20058;-52
2023/08/05 05:01:40;;;;;;;14.57;8.23;;;;;;;14.99;100.00;101328.38;5008104;28;20056;-54
2023/08/05 05:04:09;;;;;;;14.75;8.15;;;;;;;15.02;100.00;101318.41;5008376;28;20489;-54
2023/08/05 05:06:37;;;;;;;12.52;8.13;;;;;;;15.03;100.00;101317.44;5010100;28;20508;-53
2023/08/05 05:09:05;;;;;;;13.57;8.48;;;;;;;15.01;100.00;101327.31;5011901;28;20156;-55
2023/08/05 05:11:35;;;;;;;14.20;8.32;;;;;;;15.03;100.00;101325.38;5011640;28;20050;-63
2023/08/05 05:14:06;;;;;;;11.95;8.25;;;;;;;15.07;100.00;101322.50;5011893;28;20053;-64
2023/08/05 05:16:34;;;;;;;11.75;7.22;;;;;;;15.13;100.00;101322.84;5011679;28;20065;-64
2023/08/05 05:19:02;;;;;;;12.80;7.90;;;;;;;15.08;100.00;101322.41;5009881;28;20034;-54
2023/08/05 05:21:31;;;;;;;11.85;8.00;;;;;;;15.17;100.00;101316.41;5008487;28;20050;-54
2023/08/05 05:23:59;;;;;;;10.98;7.45;;;;;;;15.15;100.00;101312.16;5010841;28;20092;-54
2023/08/05 05:26:27;;;;;;;13.18;8.20;;;;;;;15.16;100.00;101311.19;5011782;28;20054;-54
2023/08/05 05:28:57;;;;;;;14.52;7.93;;;;;;;15.21;100.00;101315.19;5011768;28;20490;-54
2023/08/05 05:31:26;;;;;;;12.70;7.20;;;;;;;15.21;100.00;101307.25;5009736;28;20128;-54
2023/08/05 05:33:54;;;;;;;14.90;8.00;;;;;;;15.25;100.00;101310.47;5007314;28;20049;-53
2023/08/05 05:36:22;;;;;;;11.90;7.18;;;;;;;15.23;100.00;101307.13;5010658;28;20500;-54
2023/08/05 05:38:51;;;;;;;12.50;7.72;;;;;;;15.29;100.00;101313.75;5011389;28;20628;-53
2023/08/05 05:41:19;;;;;;;12.43;7.68;;;;;;;15.35;100.00;101314.13;5011892;28;20042;-64
2023/08/05 05:43:47;;;;;;;10.93;6.78;;;;;;;15.38;100.00;101313.88;5011632;28;20100;-64
2023/08/05 05:46:19;;;;;;;11.20;7.53;;;;;;;15.38;100.00;101311.22;5011706;28;20064;-58
2023/08/05 05:48:48;;;;;;;12.20;7.57;;;;;;;15.41;100.00;101304.00;5011084;28;20120;-53
2023/08/05 05:51:16;;;;;;;11.80;7.40;;;;;;;15.44;100.00;101299.28;5010250;28;20053;-55
2023/08/05 05:53:45;;;;;;;11.80;8.77;;;;;;;15.45;100.00;101302.81;5005908;28;20063;-64
2023/08/05 05:56:13;;;;;;;13.13;7.30;;;;;;;15.52;100.00;101302.19;5008593;28;20061;-64
2023/08/05 05:58:41;;;;;;;12.32;8.32;;;;;;;15.57;100.00;101307.13;5013935;28;20493;-64
2023/08/05 06:01:10;;;;;;;13.50;8.35;;;;;;;15.56;100.00;101297.50;5014807;28;20048;-64
2023/08/05 06:03:41;;;;;;;13.77;9.07;;;;;;;15.62;100.00;101304.09;5011329;28;20050;-64
2023/08/05 06:06:10;;;;;;;12.67;8.67;;;;;;;15.71;100.00;101308.69;5011693;28;20104;-64
2023/08/05 06:08:38;;;;;;;14.23;8.88;;;;;;;15.70;100.00;101301.69;5011621;28;20053;-64
2023/08/05 06:11:07;;;;;;;12.32;8.40;;;;;;;15.75;100.00;101303.97;5011692;28;20386;-64
2023/08/05 06:13:36;;;;;;;14.30;8.48;;;;;;;15.76;100.00;101297.69;5013108;28;20042;-64
2023/08/05 06:16:04;;;;;;;11.57;8.13;;;;;;;15.74;100.00;101303.13;5010232;28;20057;-64
2023/08/05 06:18:33;;;;;;;12.38;7.78;;;;;;;15.83;100.00;101298.94;5010845;28;20562;-64
2023/08/05 06:21:02;;;;;;;12.15;8.68;;;;;;;15.84;100.00;101300.59;5011842;28;20489;-64
2023/08/05 06:23:31;;;;;;;12.88;8.43;;;;;;;15.93;100.00;101301.69;5009253;28;20046;-64
2023/08/05 06:25:59;;;;;;;11.27;8.13;;;;;;;16.01;100.00;101293.97;5012860;28;20588;-64
2023/08/05 06:28:27;;;;;;;12.93;8.23;;;;;;;16.04;100.00;101299.00;5014456;28;20053;-64
2023/08/05 06:30:56;;;;;;;12.00;8.07;;;;;;;16.05;100.00;101296.22;5014181;28;20432;-64
2023/08/05 06:33:24;;;;;;;13.55;8.30;;;;;;;16.14;100.00;101293.78;5014538;28;20084;-64
2023/08/05 06:35:53;;;;;;;12.15;7.80;;;;;;;16.02;100.00;101287.66;5014441;28;20485;-54
2023/08/05 06:38:24;;;;;;;12.20;8.45;;;;;;;16.12;100.00;101282.47;5012852;28;20061;-55
2023/08/05 06:40:52;;;;;;;14.65;8.40;;;;;;;16.16;100.00;101282.09;5012020;28;20058;-54
2023/08/05 06:43:21;;;;;;;13.23;8.82;;;;;;;16.23;100.00;101293.03;5010620;28;20583;-53
2023/08/05 06:45:53;;;;;;;13.10;8.38;;;;;;;16.34;100.00;101284.19;5010545;28;20366;-55
2023/08/05 06:48:23;;;;;;;13.68;8.63;;;;;;;16.39;100.00;101282.84;5012033;28;20065;-54
2023/08/05 06:50:51;;;;;;;13.23;8.93;;;;;;;16.50;100.00;101284.59;5013960;28;20378;-55
2023/08/05 06:53:19;;;;;;;13.80;8.77;;;;;;;16.62;100.00;101288.06;5010575;28;20484;-64
2023/08/05 06:55:49;;;;;;;14.07;9.32;;;;;;;16.77;100.00;101279.75;5010127;28;20456;-64
2023/08/05 06:58:17;;;;;;;14.07;9.00;;;;;;;16.77;100.00;101277.94;5011088;28;20513;-64
2023/08/05 07:00:53;;;;;;;16.95;9.20;;;;;;;16.94;100.00;101267.75;5013477;28;20073;-64
2023/08/05 07:03:22;;;;;;;13.23;9.35;;;;;;;17.11;100.00;101272.44;5011551;28;20121;-64
2023/08/05 07:05:55;;;;;;;12.80;9.98;;;;;;;17.08;100.00;101266.53;5010673;28;20791;-64
2023/08/05 07:08:24;;;;;;;14.13;10.60;;;;;;;17.10;100.00;101264.59;5008713;28;20132;-64
2023/08/05 07:10:57;;;;;;;14.23;10.43;;;;;;;17.09;100.00;101266.41;5012704;28;20625;-64
2023/08/05 07:13:26;;;;;;;15.13;10.65;;;;;;;17.13;100.00;101267.00;5010016;28;20048;-55
2023/08/05 07:15:59;;;;;;;15.45;10.20;;;;;;;17.26;100.00;101264.97;5009780;28;20042;-56
2023/08/05 07:18:27;;;;;;;17.90;11.55;;;;;;;17.35;100.00;101273.94;5009990;28;20034;-64
2023/08/05 07:20:56;;;;;;;14.57;11.20;;;;;;;17.49;100.00;101270.06;5010069;28;20050;-55
2023/08/05 07:23:25;;;;;;;17.92;11.73;;;;;;;17.55;100.00;101265.06;5008749;28;20539;-54
2023/08/05 07:25:53;;;;;;;17.35;11.98;;;;;;;17.50;100.00;101267.28;5009931;28;20541;-54
2023/08/05 07:28:23;;;;;;;16.33;11.40;;;;;;;17.48;100.00;101261.25;5009991;28;20050;-56
2023/08/05 07:31:02;;;;;;;15.38;11.30;;;;;;;17.56;100.00;101271.19;5009572;28;20042;-54
2023/08/05 07:33:31;;;;;;;17.35;11.90;;;;;;;17.46;100.00;101265.84;5012806;28;20073;-54
2023/08/05 07:36:09;;;;;;;17.60;11.15;;;;;;;17.61;100.00;101268.16;5008786;28;20057;-54
2023/08/05 07:38:40;;;;;;;14.82;11.30;;;;;;;17.70;100.00;101273.50;5010969;28;20042;-64
2023/08/05 07:41:12;;;;;;;13.75;10.27;;;;;;;17.96;100.00;101270.34;5013165;28;20065;-65
2023/08/05 07:43:43;;;;;;;14.05;10.80;;;;;;;18.21;100.00;101263.63;5009921;28;20034;-64
2023/08/05 07:46:13;;;;;;;17.60;11.45;;;;;;;18.55;100.00;101267.69;5009849;28;20493;-65
2023/08/05 07:48:45;;;;;;;16.08;9.90;;;;;;;18.78;100.00;101260.25;5009216;28;20049;-64
2023/08/05 07:51:14;;;;;;;16.35;9.80;;;;;;;18.77;100.00;101255.88;5010328;28;20616;-64
2023/08/05 07:53:42;;;;;;;14.30;9.73;;;;;;;18.90;100.00;101242.28;5011598;28;20117;-55
2023/08/05 07:56:11;;;;;;;11.00;6.57;;;;;;;18.95;100.00;101245.38;5009952;28;20045;-54
2023/08/05 07:58:42;;;;;;;10.73;6.63;;;;;;;18.91;100.00;101233.31;5009678;28;20049;-53
2023/08/05 08:01:13;;;;;;;10.40;6.35;;;;;;;19.01;100.00;101225.28;5008069;28;20053;-53
2023/08/05 08:03:42;;;;;;;12.98;7.55;;;;;;;18.89;100.00;101222.78;5009296;28;20054;-63
2023/08/05 08:06:14;;;;;;;11.50;6.97;;;;;;;18.94;100.00;101214.38;5011793;28;20528;-63
2023/08/05 08:08:43;;;;;;;12.82;7.07;;;;;;;18.92;100.00;101216.31;5012812;28;20077;-63
2023/08/05 08:11:12;;;;;;;11.30;7.00;;;;;;;18.81;100.00;101209.31;5012548;28;20058;-54
2023/08/05 08:13:44;;;;;;;12.53;6.90;;;;;;;18.71;100.00;101204.03;5012733;28;20050;-54
2023/08/05 08:16:15;;;;;;;10.20;6.47;;;;;;;18.73;100.00;101207.41;5009350;28;20061;-55
2023/08/05 08:18:44;;;;;;;9.98;6.03;;;;;;;18.73;100.00;101206.53;5008131;28;20104;-55
2023/08/05 08:21:12;;;;;;;11.30;6.20;;;;;;;18.83;100.00;101206.50;5011302;28;20050;-64
2023/08/05 08:23:41;;;;;;;11.10;6.38;;;;;;;18.70;100.00;101205.00;5008640;28;20064;-63
2023/08/05 08:26:09;;;;;;;9.95;5.18;;;;;;;19.02;100.00;101201.16;5008937;28;20057;-63
2023/08/05 08:28:37;;;;;;;7.95;4.50;;;;;;;19.25;100.00;101200.75;5008420;28;20135;-54
2023/08/05 08:31:05;;;;;;;10.95;4.90;;;;;;;19.37;100.00;101193.41;5008823;28;20488;-54
2023/08/05 08:33:35;;;;;;;10.07;6.10;;;;;;;19.58;100.00;101195.81;5008246;28;20049;-55
2023/08/05 08:36:04;;;;;;;9.38;5.97;;;;;;;19.61;100.00;101198.16;5008750;28;20107;-53
2023/08/05 08:38:32;;;;;;;11.90;6.22;;;;;;;19.83;100.00;101196.09;5007125;28;20104;-54
2023/08/05 08:41:04;;;;;;;12.40;6.70;;;;;;;19.92;100.00;101196.00;5009267;28;20041;-55
2023/08/05 08:43:32;;;;;;;9.40;6.72;;;;;;;19.87;100.00;101192.94;5006957;28;20053;-54
2023/08/05 08:46:03;;;;;;;12.07;7.50;;;;;;;20.00;100.00;101189.91;5008606;28;20093;-63
2023/08/05 08:48:35;;;;;;;9.38;5.90;;;;;;;20.16;100.00;101178.50;5008575;28;20056;-63
2023/08/05 08:51:04;;;;;;;10.05;5.78;;;;;;;20.27;100.00;101185.44;5011187;28;20054;-63
2023/08/05 08:53:33;;;;;;;10.35;6.70;;;;;;;19.93;100.00;101172.81;5006579;28;20045;-63
2023/08/05 08:56:02;;;;;;;9.98;6.30;;;;;;;20.11;100.00;101167.47;5010643;28;20142;-54
2023/08/05 08:58:30;;;;;;;10.85;5.50;;;;;;;20.16;100.00;101167.84;5012088;28;20042;-54
2023/08/05 09:01:00;;;;;;;8.43;5.10;;;;;;;20.55;100.00;101164.78;5011885;28;20538;-63
2023/08/05 09:03:32;;;;;;;8.07;5.30;;;;;;;20.52;100.00;101158.88;5007801;28;20632;-63
2023/08/05 09:06:02;;;;;;;7.15;5.07;;;;;;;20.47;100.00;101150.53;5010184;28;20113;-63
2023/08/05 09:08:31;;;;;;;8.82;5.05;;;;;;;20.44;100.00;101159.69;5007511;28;20049;-63
2023/08/05 09:11:00;;;;;;;9.07;5.20;;;;;;;20.13;100.00;101157.47;5009121;28;20052;-54
2023/08/05 09:13:28;;;;;;;7.43;4.13;;;;;;;20.45;100.00;101156.03;5008596;28;20049;-54
2023/08/05 09:15:57;;;;;;;6.28;3.75;;;;;;;20.57;100.00;101148.56;5008706;28;20085;-54
2023/08/05 09:18:25;;;;;;;6.93;4.10;;;;;;;20.45;100.00;101140.00;5008199;28;20042;-55
2023/08/05 09:20:53;;;;;;;7.85;4.22;;;;;;;20.60;100.00;101145.59;5010499;28;20493;-54
2023/08/05 09:23:23;;;;;;;8.38;4.43;;;;;;;20.96;100.00;101147.31;5011835;28;20048;-52
2023/08/05 09:25:51;;;;;;;7.22;4.15;;;;;;;20.92;100.00;101134.25;5011707;28;20053;-54
2023/08/05 09:28:30;;;;;;;8.45;3.90;;;;;;;21.26;100.00;101125.34;5011477;28;20054;-54
2023/08/05 09:31:15;;;;;;;6.97;4.65;;;;;;;20.79;100.00;101122.34;5008642;28;20054;-54
2023/08/05 09:33:44;;;;;;;7.93;4.15;;;;;;;21.32;100.00;101120.34;5011040;28;20034;-54
2023/08/05 09:36:14;;;;;;;7.47;3.95;;;;;;;21.24;100.00;101111.31;5012491;28;20081;-54
2023/08/05 09:38:46;;;;;;;6.03;3.10;;;;;;;21.59;100.00;101100.50;5010100;28;20119;-54
2023/08/05 09:41:14;;;;;;;7.18;3.88;;;;;;;21.68;100.00;101090.63;5012845;28;20058;-53
2023/08/05 09:43:45;;;;;;;5.90;3.60;;;;;;;21.92;100.00;101095.16;5010950;28;20096;-54
2023/08/05 09:46:15;;;;;;;4.93;2.55;;;;;;;21.92;100.00;101085.28;5014089;28;20375;-52
2023/08/05 09:48:44;;;;;;;5.93;3.38;;;;;;;21.67;100.00;101091.66;5012256;28;20370;-54
2023/08/05 09:51:16;;;;;;;6.57;4.00;;;;;;;21.82;100.00;101081.94;5012992;28;20034;-52
2023/08/05 09:53:52;;;;;;;8.13;3.60;;;;;;;22.11;100.00;101070.72;5015291;28;20081;-62
2023/08/05 09:56:21;;;;;;;7.50;3.80;;;;;;;21.75;100.00;101067.56;5014048;28;20111;-53
2023/08/05 09:58:51;;;;;;;7.60;3.15;;;;;;;21.86;100.00;101064.53;5012527;28;20058;-55
2023/08/05 10:01:21;;;;;;;7.22;3.03;;;;;;;22.44;100.00;101062.63;5015059;28;20056;-61
2023/08/05 10:03:50;;;;;;;5.55;2.83;;;;;;;22.55;100.00;101066.75;5014653;28;20050;-62
2023/08/05 10:06:20;;;;;;;4.55;2.67;;;;;;;22.32;100.00;101058.59;5014255;28;20088;-54
2023/08/05 10:08:51;;;;;;;3.75;2.10;;;;;;;22.58;100.00;101055.69;5011075;28;20050;-62
2023/08/05 10:11:19;;;;;;;4.90;2.50;;;;;;;22.80;100.00;101050.56;5014648;28;20131;-63
2023/08/05 10:13:52;;;;;;;6.28;2.50;;;;;;;22.88;100.00;101042.47;5014659;28;20053;-63
2023/08/05 10:16:22;;;;;;;4.90;2.80;;;;;;;22.82;100.00;101039.66;5015317;28;20054;-63
2023/08/05 10:18:51;;;;;;;4.78;2.30;;;;;;;23.16;100.00;101033.94;5014823;28;20056;-63
2023/08/05 10:21:45;;;;;;;5.05;2.97;;;;;;;23.02;100.00;101032.84;5012839;28;20061;-63
2023/08/05 10:24:18;;;;;;;5.47;2.88;;;;;;;22.64;100.00;101026.53;5000433;28;20501;-63
2023/08/05 10:26:47;;;;;;;6.53;3.10;;;;;;;22.52;100.00;101024.22;5011435;28;20057;-63
2023/08/05 10:29:28;;;;;;;6.18;2.70;;;;;;;22.87;100.00;101021.22;5011811;28;20188;-63
2023/08/05 10:32:10;;;;;;;5.75;2.90;;;;;;;22.78;100.00;101020.41;5011775;28;20050;-63
2023/08/05 10:34:38;;;;;;;7.18;3.20;;;;;;;22.49;100.00;101013.03;5011044;28;20037;-63
2023/08/05 10:37:07;;;;;;;5.32;2.65;;;;;;;22.60;100.00;101010.78;5011609;28;20056;-63
2023/08/05 10:39:46;;;;;;;9.10;3.03;;;;;;;22.73;100.00;101006.72;5014370;28;20069;-62
2023/08/05 10:42:36;;;;;;;6.55;2.63;;;;;;;22.79;100.00;101001.44;5013202;28;20440;-53
2023/08/05 10:45:06;;;;;;;4.65;2.72;;;;;;;23.00;100.00;100989.28;5011160;28;20140;-62
2023/08/05 10:47:34;;;;;;;6.63;2.90;;;;;;;23.23;100.00;100992.00;5013773;28;20378;-61
2023/08/05 10:50:03;;;;;;;6.75;3.25;;;;;;;23.23;100.00;100991.13;5011523;28;20042;-59
2023/08/05 10:52:37;;;;;;;5.20;2.40;;;;;;;23.06;100.00;100988.56;5012792;28;20053;-62
2023/08/05 10:55:12;;;;;;;3.70;2.25;;;;;;;22.91;100.00;100982.31;5014077;28;20123;-63
2023/08/05 10:57:48;;;;;;;5.10;3.17;;;;;;;22.74;100.00;100984.25;5011134;28;20049;-63
2023/08/05 11:00:21;;;;;;;4.80;2.63;;;;;;;22.71;100.00;100980.06;5009290;28;20136;-63
2023/08/05 11:03:10;;;;;;;5.32;2.72;;;;;;;22.82;100.00;100973.47;5010562;28;20053;-63
2023/08/05 11:05:40;;;;;;;5.35;2.40;;;;;;;22.84;100.00;100970.59;5009837;28;20056;-63
2023/08/05 11:08:08;;;;;;;4.95;2.72;;;;;;;22.66;100.00;100965.53;5013116;28;20049;-63
2023/08/05 11:10:38;;;;;;;4.32;2.50;;;;;;;22.74;100.00;100966.31;5013573;28;20501;-63
2023/08/05 11:13:08;;;;;;;7.20;3.00;;;;;;;23.28;100.00;100967.28;5012731;28;20077;-63
2023/08/05 11:15:41;;;;;;;4.88;2.30;;;;;;;23.56;100.00;100950.59;5013234;28;20076;-63
2023/08/05 11:18:09;;;;;;;3.70;2.33;;;;;;;23.94;100.00;100942.50;5013249;28;20049;-53
2023/08/05 11:20:39;;;;;;;4.18;2.00;;;;;;;24.29;100.00;100943.56;5013429;28;20046;-63
2023/08/05 11:23:08;;;;;;;3.88;2.22;;;;;;;24.10;100.00;100942.31;5013151;28;20060;-63
2023/08/05 11:25:37;;;;;;;4.25;2.40;;;;;;;23.97;100.00;100928.72;5013642;28;20053;-62